sensor_id;sensor_type;location;lat;lon;timestamp;pressure;altitude;pressure_sealevel;temperature;humidity
42297;BME280;72430;47.456;19.016;2024-03-23T00:56:37;100063.81;;;7.27;71.50
42297;BME280;72430;47.456;19.016;2024-03-23T00:59:38;100057.19;;;7.31;71.33
42297;BME280;72430;47.456;19.016;2024-03-23T01:02:39;100056.41;;;7.08;72.04
42297;BME280;72430;47.456;19.016;2024-03-23T01:05:40;100058.59;;;6.91;73.27
42297;BME280;72430;47.456;19.016;2024-03-23T01:08:40;100048.47;;;6.95;73.13
42297;BME280;72430;47.456;19.016;2024-03-23T01:11:41;100049.09;;;6.98;72.33
42297;BME280;72430;47.456;19.016;2024-03-23T01:14:42;100041.91;;;6.99;73.80
42297;BME280;72430;47.456;19.016;2024-03-23T01:17:43;100042.75;;;7.11;72.61
42297;BME280;72430;47.456;19.016;2024-03-23T01:20:44;100041.44;;;6.71;75.35
42297;BME280;72430;47.456;19.016;2024-03-23T01:23:45;100037.06;;;6.93;73.54
42297;BME280;72430;47.456;19.016;2024-03-23T01:26:46;100030.50;;;6.74;73.60
42297;BME280;72430;47.456;19.016;2024-03-23T01:29:47;100029.16;;;6.68;74.28
42297;BME280;72430;47.456;19.016;2024-03-23T01:32:48;100026.84;;;6.75;73.71
42297;BME280;72430;47.456;19.016;2024-03-23T01:35:48;100027.06;;;6.72;72.79
42297;BME280;72430;47.456;19.016;2024-03-23T01:38:50;100024.75;;;6.44;74.08
42297;BME280;72430;47.456;19.016;2024-03-23T01:41:52;100023.53;;;6.49;72.16
42297;BME280;72430;47.456;19.016;2024-03-23T01:44:53;100032.53;;;6.48;72.47
42297;BME280;72430;47.456;19.016;2024-03-23T01:47:54;100020.69;;;6.16;74.78
42297;BME280;72430;47.456;19.016;2024-03-23T01:50:55;100015.47;;;6.14;75.14
42297;BME280;72430;47.456;19.016;2024-03-23T01:53:56;100019.72;;;6.17;73.05
42297;BME280;72430;47.456;19.016;2024-03-23T01:56:58;100019.31;;;6.10;73.90
42297;BME280;72430;47.456;19.016;2024-03-23T01:59:59;100008.53;;;6.12;73.97
42297;BME280;72430;47.456;19.016;2024-03-23T02:03:00;100008.28;;;6.03;75.37
42297;BME280;72430;47.456;19.016;2024-03-23T02:06:01;100007.47;;;6.01;72.70
42297;BME280;72430;47.456;19.016;2024-03-23T02:09:02;100006.00;;;5.86;76.52
42297;BME280;72430;47.456;19.016;2024-03-23T02:12:04;99997.84;;;5.87;76.60
42297;BME280;72430;47.456;19.016;2024-03-23T02:15:05;99999.22;;;5.93;76.94
42297;BME280;72430;47.456;19.016;2024-03-23T02:18:10;99992.84;;;6.07;75.77
42297;BME280;72430;47.456;19.016;2024-03-23T02:21:11;100003.50;;;5.71;78.86
42297;BME280;72430;47.456;19.016;2024-03-23T02:24:12;99995.38;;;5.48;78.64
42297;BME280;72430;47.456;19.016;2024-03-23T02:27:12;99995.13;;;5.40;77.14
42297;BME280;72430;47.456;19.016;2024-03-23T02:30:13;99988.66;;;5.56;77.68
42297;BME280;72430;47.456;19.016;2024-03-23T02:33:14;99987.09;;;5.40;78.08
42297;BME280;72430;47.456;19.016;2024-03-23T02:36:15;99978.97;;;5.66;76.59
42297;BME280;72430;47.456;19.016;2024-03-23T02:39:16;99976.34;;;5.77;77.87
42297;BME280;72430;47.456;19.016;2024-03-23T02:42:17;99976.78;;;5.71;77.66
42297;BME280;72430;47.456;19.016;2024-03-23T02:45:18;99974.88;;;5.85;77.10
42297;BME280;72430;47.456;19.016;2024-03-23T02:48:19;99967.16;;;5.57;78.72
42297;BME280;72430;47.456;19.016;2024-03-23T02:51:20;99969.78;;;5.46;77.53
42297;BME280;72430;47.456;19.016;2024-03-23T02:54:20;99958.97;;;5.72;76.22
42297;BME280;72430;47.456;19.016;2024-03-23T02:57:21;99961.78;;;5.82;75.84
42297;BME280;72430;47.456;19.016;2024-03-23T03:00:22;99962.38;;;5.49;75.98
42297;BME280;72430;47.456;19.016;2024-03-23T03:03:23;99964.22;;;5.49;75.48
42297;BME280;72430;47.456;19.016;2024-03-23T03:06:25;99961.53;;;5.24;76.23
42297;BME280;72430;47.456;19.016;2024-03-23T03:09:26;99959.13;;;5.21;76.95
42297;BME280;72430;47.456;19.016;2024-03-23T03:12:27;99952.56;;;5.26;78.64
42297;BME280;72430;47.456;19.016;2024-03-23T03:15:27;99947.22;;;5.26;77.88
42297;BME280;72430;47.456;19.016;2024-03-23T03:18:28;99954.56;;;5.35;78.42
42297;BME280;72430;47.456;19.016;2024-03-23T03:21:30;99949.91;;;5.50;78.21
42297;BME280;72430;47.456;19.016;2024-03-23T03:24:31;99951.69;;;5.49;80.08
42297;BME280;72430;47.456;19.016;2024-03-23T03:27:33;99947.63;;;5.32;81.79
42297;BME280;72430;47.456;19.016;2024-03-23T03:30:34;99947.88;;;5.29;80.61
42297;BME280;72430;47.456;19.016;2024-03-23T03:33:35;99937.53;;;5.24;80.48
42297;BME280;72430;47.456;19.016;2024-03-23T03:36:36;99932.25;;;5.36;78.97
42297;BME280;72430;47.456;19.016;2024-03-23T03:39:37;99924.47;;;5.33;79.05
42297;BME280;72430;47.456;19.016;2024-03-23T03:42:37;99940.28;;;5.12;80.05
42297;BME280;72430;47.456;19.016;2024-03-23T03:45:39;99935.03;;;5.10;79.58
42297;BME280;72430;47.456;19.016;2024-03-23T03:48:40;99933.75;;;4.78;79.58
42297;BME280;72430;47.456;19.016;2024-03-23T03:51:40;99931.63;;;5.08;79.34
42297;BME280;72430;47.456;19.016;2024-03-23T03:54:41;99930.50;;;5.23;79.22
42297;BME280;72430;47.456;19.016;2024-03-23T03:57:42;99922.72;;;5.20;81.33
42297;BME280;72430;47.456;19.016;2024-03-23T04:00:43;99925.94;;;5.37;78.97
42297;BME280;72430;47.456;19.016;2024-03-23T04:03:43;99924.88;;;5.15;80.08
42297;BME280;72430;47.456;19.016;2024-03-23T04:06:44;99917.38;;;4.96;80.30
42297;BME280;72430;47.456;19.016;2024-03-23T04:09:45;99925.19;;;5.10;79.70
42297;BME280;72430;47.456;19.016;2024-03-23T04:12:47;99923.28;;;5.13;80.55
42297;BME280;72430;47.456;19.016;2024-03-23T04:15:47;99918.72;;;5.50;79.60
42297;BME280;72430;47.456;19.016;2024-03-23T04:18:48;99915.22;;;5.61;78.70
42297;BME280;72430;47.456;19.016;2024-03-23T04:21:49;99916.31;;;5.59;79.68
42297;BME280;72430;47.456;19.016;2024-03-23T04:24:50;99910.84;;;5.60;79.06
42297;BME280;72430;47.456;19.016;2024-03-23T04:27:51;99906.03;;;5.66;78.69
42297;BME280;72430;47.456;19.016;2024-03-23T04:30:52;99900.53;;;5.56;78.74
42297;BME280;72430;47.456;19.016;2024-03-23T04:33:52;99909.13;;;5.48;79.57
42297;BME280;72430;47.456;19.016;2024-03-23T04:36:53;99906.09;;;5.53;78.62
42297;BME280;72430;47.456;19.016;2024-03-23T04:39:54;99909.44;;;5.43;79.50
42297;BME280;72430;47.456;19.016;2024-03-23T04:42:55;99912.81;;;5.34;79.97
42297;BME280;72430;47.456;19.016;2024-03-23T04:45:55;99904.56;;;5.37;79.18
42297;BME280;72430;47.456;19.016;2024-03-23T04:48:56;99898.72;;;5.20;80.48
42297;BME280;72430;47.456;19.016;2024-03-23T04:51:57;99902.72;;;5.26;80.56
42297;BME280;72430;47.456;19.016;2024-03-23T04:54:59;99901.19;;;5.10;81.39
42297;BME280;72430;47.456;19.016;2024-03-23T04:57:59;99901.19;;;5.35;79.59
42297;BME280;72430;47.456;19.016;2024-03-23T05:01:00;99904.72;;;5.35;80.01
42297;BME280;72430;47.456;19.016;2024-03-23T05:04:01;99897.06;;;5.42;78.83
42297;BME280;72430;47.456;19.016;2024-03-23T05:07:03;99902.69;;;5.50;78.15
42297;BME280;72430;47.456;19.016;2024-03-23T05:10:05;99893.72;;;5.51;79.50
42297;BME280;72430;47.456;19.016;2024-03-23T05:13:06;99896.25;;;5.42;81.87
42297;BME280;72430;47.456;19.016;2024-03-23T05:16:07;99893.03;;;5.72;79.27
42297;BME280;72430;47.456;19.016;2024-03-23T05:19:08;99897.88;;;5.67;79.81
42297;BME280;72430;47.456;19.016;2024-03-23T05:22:09;99886.84;;;5.72;80.28
42297;BME280;72430;47.456;19.016;2024-03-23T05:25:10;99898.06;;;5.88;79.29
42297;BME280;72430;47.456;19.016;2024-03-23T05:28:12;99893.31;;;5.81;80.48
42297;BME280;72430;47.456;19.016;2024-03-23T05:31:12;99884.88;;;6.10;78.95
42297;BME280;72430;47.456;19.016;2024-03-23T05:34:22;99884.25;;;6.06;79.41
42297;BME280;72430;47.456;19.016;2024-03-23T05:37:23;99883.63;;;6.25;77.60
42297;BME280;72430;47.456;19.016;2024-03-23T05:40:26;99879.03;;;6.27;78.12
42297;BME280;72430;47.456;19.016;2024-03-23T05:43:27;99882.44;;;6.29;79.66
42297;BME280;72430;47.456;19.016;2024-03-23T05:46:29;99885.59;;;6.35;78.87
42297;BME280;72430;47.456;19.016;2024-03-23T05:49:30;99875.88;;;6.34;79.29
42297;BME280;72430;47.456;19.016;2024-03-23T05:52:30;99871.63;;;6.42;78.82
42297;BME280;72430;47.456;19.016;2024-03-23T05:55:31;99878.78;;;6.42;79.01
42297;BME280;72430;47.456;19.016;2024-03-23T05:58:33;99878.00;;;6.74;78.01
42297;BME280;72430;47.456;19.016;2024-03-23T06:01:34;99878.59;;;6.78;78.88
42297;BME280;72430;47.456;19.016;2024-03-23T06:04:35;99875.66;;;6.81;77.90
42297;BME280;72430;47.456;19.016;2024-03-23T06:07:36;99874.41;;;6.96;78.53
42297;BME280;72430;47.456;19.016;2024-03-23T06:10:37;99866.03;;;7.22;76.84
42297;BME280;72430;47.456;19.016;2024-03-23T06:13:37;99859.91;;;7.10;78.90
42297;BME280;72430;47.456;19.016;2024-03-23T06:16:38;99842.47;;;7.16;79.88
42297;BME280;72430;47.456;19.016;2024-03-23T06:19:39;99857.97;;;7.55;77.98
42297;BME280;72430;47.456;19.016;2024-03-23T06:22:41;99847.84;;;7.80;77.04
42297;BME280;72430;47.456;19.016;2024-03-23T06:25:42;99841.22;;;7.84;79.65
42297;BME280;72430;47.456;19.016;2024-03-23T06:28:43;99840.13;;;7.97;80.50
42297;BME280;72430;47.456;19.016;2024-03-23T06:31:44;99825.97;;;8.16;80.55
42297;BME280;72430;47.456;19.016;2024-03-23T06:34:52;99822.88;;;8.52;80.83
42297;BME280;72430;47.456;19.016;2024-03-23T06:37:53;99816.16;;;8.87;80.83
42297;BME280;72430;47.456;19.016;2024-03-23T06:40:54;99819.09;;;9.33;80.84
42297;BME280;72430;47.456;19.016;2024-03-23T06:43:54;99819.94;;;9.44;79.76
42297;BME280;72430;47.456;19.016;2024-03-23T06:46:56;99822.88;;;9.50;79.95
42297;BME280;72430;47.456;19.016;2024-03-23T06:49:57;99817.47;;;9.70;79.28
42297;BME280;72430;47.456;19.016;2024-03-23T06:52:58;99812.59;;;9.84;77.77
42297;BME280;72430;47.456;19.016;2024-03-23T06:55:59;99813.13;;;9.97;78.22
42297;BME280;72430;47.456;19.016;2024-03-23T06:59:01;99811.94;;;10.10;78.28
42297;BME280;72430;47.456;19.016;2024-03-23T07:02:02;99805.94;;;10.26;77.48
42297;BME280;72430;47.456;19.016;2024-03-23T07:05:03;99804.88;;;10.37;78.50
42297;BME280;72430;47.456;19.016;2024-03-23T07:08:04;99799.31;;;10.48;76.53
42297;BME280;72430;47.456;19.016;2024-03-23T07:11:05;99805.28;;;10.70;74.38
42297;BME280;72430;47.456;19.016;2024-03-23T07:14:06;99798.66;;;11.00;75.04
42297;BME280;72430;47.456;19.016;2024-03-23T07:17:07;99792.53;;;11.17;73.96
42297;BME280;72430;47.456;19.016;2024-03-23T07:20:09;99781.59;;;11.36;72.81
42297;BME280;72430;47.456;19.016;2024-03-23T07:23:11;99779.81;;;11.72;73.01
42297;BME280;72430;47.456;19.016;2024-03-23T07:26:11;99776.28;;;12.06;73.60
42297;BME280;72430;47.456;19.016;2024-03-23T07:29:12;99774.13;;;12.18;73.49
42297;BME280;72430;47.456;19.016;2024-03-23T07:32:13;99773.75;;;12.56;70.89
42297;BME280;72430;47.456;19.016;2024-03-23T07:35:14;99766.81;;;12.61;70.03
42297;BME280;72430;47.456;19.016;2024-03-23T07:38:15;99761.28;;;12.71;69.29
42297;BME280;72430;47.456;19.016;2024-03-23T07:41:18;99755.06;;;12.87;67.64
42297;BME280;72430;47.456;19.016;2024-03-23T07:44:19;99744.41;;;13.19;66.75
42297;BME280;72430;47.456;19.016;2024-03-23T07:47:20;99727.81;;;13.55;66.07
42297;BME280;72430;47.456;19.016;2024-03-23T07:50:21;99730.06;;;13.92;64.79
42297;BME280;72430;47.456;19.016;2024-03-23T07:53:22;99728.63;;;13.64;62.45
42297;BME280;72430;47.456;19.016;2024-03-23T07:56:23;99725.13;;;13.95;61.58
42297;BME280;72430;47.456;19.016;2024-03-23T07:59:24;99727.00;;;13.47;61.23
42297;BME280;72430;47.456;19.016;2024-03-23T08:02:25;99733.41;;;13.29;61.92
42297;BME280;72430;47.456;19.016;2024-03-23T08:05:26;99728.88;;;13.05;62.92
42297;BME280;72430;47.456;19.016;2024-03-23T08:08:27;99717.88;;;13.23;62.82
42297;BME280;72430;47.456;19.016;2024-03-23T08:11:30;99719.03;;;13.28;62.20
42297;BME280;72430;47.456;19.016;2024-03-23T08:14:31;99722.78;;;13.11;62.99
42297;BME280;72430;47.456;19.016;2024-03-23T08:17:31;99719.88;;;13.46;62.90
42297;BME280;72430;47.456;19.016;2024-03-23T08:20:32;99718.09;;;13.86;61.30
42297;BME280;72430;47.456;19.016;2024-03-23T08:23:35;99719.50;;;14.05;61.06
42297;BME280;72430;47.456;19.016;2024-03-23T08:26:38;99717.59;;;14.46;61.20
42297;BME280;72430;47.456;19.016;2024-03-23T08:29:40;99708.22;;;14.57;60.30
42297;BME280;72430;47.456;19.016;2024-03-23T08:32:41;99710.84;;;14.42;58.88
42297;BME280;72430;47.456;19.016;2024-03-23T08:35:42;99701.41;;;14.38;60.35
42297;BME280;72430;47.456;19.016;2024-03-23T08:38:43;99700.50;;;14.69;59.85
42297;BME280;72430;47.456;19.016;2024-03-23T08:41:44;99695.09;;;14.69;60.12
42297;BME280;72430;47.456;19.016;2024-03-23T08:44:47;99692.19;;;14.70;58.51
42297;BME280;72430;47.456;19.016;2024-03-23T08:47:50;99691.69;;;14.75;58.90
42297;BME280;72430;47.456;19.016;2024-03-23T08:51:04;99687.59;;;14.71;59.07
42297;BME280;72430;47.456;19.016;2024-03-23T08:54:05;99682.56;;;14.91;58.29
42297;BME280;72430;47.456;19.016;2024-03-23T08:57:05;99674.72;;;14.96;58.74
42297;BME280;72430;47.456;19.016;2024-03-23T09:00:08;99669.63;;;15.16;57.33
42297;BME280;72430;47.456;19.016;2024-03-23T09:03:09;99664.50;;;15.37;58.38
42297;BME280;72430;47.456;19.016;2024-03-23T09:06:11;99666.13;;;15.83;56.88
42297;BME280;72430;47.456;19.016;2024-03-23T09:09:12;99656.63;;;16.24;55.67
42297;BME280;72430;47.456;19.016;2024-03-23T09:12:13;99641.88;;;16.55;54.64
42297;BME280;72430;47.456;19.016;2024-03-23T09:15:14;99644.28;;;16.43;53.55
42297;BME280;72430;47.456;19.016;2024-03-23T09:18:16;99629.19;;;16.62;53.19
42297;BME280;72430;47.456;19.016;2024-03-23T09:21:17;99635.66;;;16.61;52.41
42297;BME280;72430;47.456;19.016;2024-03-23T09:24:17;99615.50;;;16.77;52.60
42297;BME280;72430;47.456;19.016;2024-03-23T09:27:18;99612.66;;;16.86;52.35
42297;BME280;72430;47.456;19.016;2024-03-23T09:30:19;99613.78;;;17.27;50.95
42297;BME280;72430;47.456;19.016;2024-03-23T09:33:20;99610.38;;;17.60;49.67
42297;BME280;72430;47.456;19.016;2024-03-23T09:36:21;99603.78;;;17.90;50.95
42297;BME280;72430;47.456;19.016;2024-03-23T09:39:22;99596.28;;;18.05;49.88
42297;BME280;72430;47.456;19.016;2024-03-23T09:42:22;99602.41;;;18.14;49.19
42297;BME280;72430;47.456;19.016;2024-03-23T09:45:28;99584.53;;;17.98;49.84
42297;BME280;72430;47.456;19.016;2024-03-23T09:48:29;99588.13;;;18.05;48.13
42297;BME280;72430;47.456;19.016;2024-03-23T09:51:31;99578.75;;;18.21;47.56
42297;BME280;72430;47.456;19.016;2024-03-23T09:54:32;99572.00;;;18.98;47.07
42297;BME280;72430;47.456;19.016;2024-03-23T09:57:32;99557.94;;;19.22;45.39
42297;BME280;72430;47.456;19.016;2024-03-23T10:00:34;99549.94;;;19.27;44.84
42297;BME280;72430;47.456;19.016;2024-03-23T10:03:45;99551.53;;;19.48;43.58
42297;BME280;72430;47.456;19.016;2024-03-23T10:06:46;99541.59;;;19.61;43.47
42297;BME280;72430;47.456;19.016;2024-03-23T10:09:47;99551.72;;;19.92;42.01
42297;BME280;72430;47.456;19.016;2024-03-23T10:12:49;99551.75;;;19.85;42.25
42297;BME280;72430;47.456;19.016;2024-03-23T10:15:58;99530.88;;;19.59;42.39
42297;BME280;72430;47.456;19.016;2024-03-23T10:18:59;99522.19;;;20.08;43.27
42297;BME280;72430;47.456;19.016;2024-03-23T10:22:00;99514.25;;;20.06;42.28
42297;BME280;72430;47.456;19.016;2024-03-23T10:25:08;99514.53;;;20.23;41.29
42297;BME280;72430;47.456;19.016;2024-03-23T10:28:09;99531.44;;;20.39;40.37
42297;BME280;72430;47.456;19.016;2024-03-23T10:31:12;99515.03;;;20.14;40.12
42297;BME280;72430;47.456;19.016;2024-03-23T10:34:13;99521.63;;;20.31;39.68
42297;BME280;72430;47.456;19.016;2024-03-23T10:37:15;99512.63;;;19.98;39.71
42297;BME280;72430;47.456;19.016;2024-03-23T10:40:15;99505.31;;;20.18;38.73
42297;BME280;72430;47.456;19.016;2024-03-23T10:43:16;99492.31;;;20.38;38.75
42297;BME280;72430;47.456;19.016;2024-03-23T10:46:17;99481.72;;;20.23;39.48
42297;BME280;72430;47.456;19.016;2024-03-23T10:49:18;99483.59;;;20.48;40.15
42297;BME280;72430;47.456;19.016;2024-03-23T10:52:19;99485.53;;;20.48;40.14
42297;BME280;72430;47.456;19.016;2024-03-23T10:55:23;99482.44;;;20.63;39.67
42297;BME280;72430;47.456;19.016;2024-03-23T10:58:31;99468.69;;;20.44;39.51
42297;BME280;72430;47.456;19.016;2024-03-23T11:01:34;99468.06;;;20.49;39.53
42297;BME280;72430;47.456;19.016;2024-03-23T11:04:38;99450.00;;;21.04;38.50
42297;BME280;72430;47.456;19.016;2024-03-23T11:07:50;99450.81;;;21.23;38.57
42297;BME280;72430;47.456;19.016;2024-03-23T11:10:51;99449.59;;;21.19;38.96
42297;BME280;72430;47.456;19.016;2024-03-23T11:13:53;99446.81;;;21.68;38.37
42297;BME280;72430;47.456;19.016;2024-03-23T11:17:11;99430.31;;;21.75;36.89
42297;BME280;72430;47.456;19.016;2024-03-23T11:20:11;99437.50;;;21.57;34.92
42297;BME280;72430;47.456;19.016;2024-03-23T11:23:28;99426.63;;;21.51;35.79
42297;BME280;72430;47.456;19.016;2024-03-23T11:26:29;99421.00;;;21.45;35.36
42297;BME280;72430;47.456;19.016;2024-03-23T11:29:30;99404.22;;;21.84;35.04
42297;BME280;72430;47.456;19.016;2024-03-23T11:32:32;99398.03;;;21.77;34.92
42297;BME280;72430;47.456;19.016;2024-03-23T11:35:35;99395.75;;;22.22;34.84
42297;BME280;72430;47.456;19.016;2024-03-23T11:38:37;99395.16;;;22.44;34.58
42297;BME280;72430;47.456;19.016;2024-03-23T11:41:51;99390.53;;;22.20;34.49
42297;BME280;72430;47.456;19.016;2024-03-23T11:44:53;99405.19;;;22.02;33.94
42297;BME280;72430;47.456;19.016;2024-03-23T11:48:10;99379.94;;;22.24;34.26
42297;BME280;72430;47.456;19.016;2024-03-23T11:51:11;99385.84;;;22.69;33.51
42297;BME280;72430;47.456;19.016;2024-03-23T11:54:12;99369.09;;;22.29;33.00
42297;BME280;72430;47.456;19.016;2024-03-23T11:57:13;99365.16;;;22.25;33.63
42297;BME280;72430;47.456;19.016;2024-03-23T12:00:21;99368.72;;;21.90;33.93
42297;BME280;72430;47.456;19.016;2024-03-23T12:03:22;99364.19;;;21.71;33.48
42297;BME280;72430;47.456;19.016;2024-03-23T12:06:26;99357.53;;;20.94;33.84
42297;BME280;72430;47.456;19.016;2024-03-23T12:09:27;99341.72;;;20.96;34.58
42297;BME280;72430;47.456;19.016;2024-03-23T12:12:27;99345.84;;;20.87;33.72
42297;BME280;72430;47.456;19.016;2024-03-23T12:15:28;99331.78;;;20.83;34.37
42297;BME280;72430;47.456;19.016;2024-03-23T12:18:29;99338.00;;;20.90;33.61
42297;BME280;72430;47.456;19.016;2024-03-23T12:21:31;99314.91;;;20.86;34.22
42297;BME280;72430;47.456;19.016;2024-03-23T12:24:32;99315.41;;;20.95;34.36
42297;BME280;72430;47.456;19.016;2024-03-23T12:27:36;99306.19;;;21.08;34.62
42297;BME280;72430;47.456;19.016;2024-03-23T12:30:39;99309.59;;;20.91;33.98
42297;BME280;72430;47.456;19.016;2024-03-23T12:33:40;99289.72;;;20.96;34.68
42297;BME280;72430;47.456;19.016;2024-03-23T12:36:41;99294.03;;;21.04;34.42
42297;BME280;72430;47.456;19.016;2024-03-23T12:39:42;99294.66;;;21.18;33.73
42297;BME280;72430;47.456;19.016;2024-03-23T12:42:43;99285.59;;;21.05;34.14
42297;BME280;72430;47.456;19.016;2024-03-23T12:45:48;99284.59;;;20.88;34.33
42297;BME280;72430;47.456;19.016;2024-03-23T12:48:49;99301.03;;;20.69;33.81
42297;BME280;72430;47.456;19.016;2024-03-23T12:51:55;99279.75;;;20.71;34.79
42297;BME280;72430;47.456;19.016;2024-03-23T12:54:56;99287.84;;;20.47;33.82
42297;BME280;72430;47.456;19.016;2024-03-23T12:57:57;99278.91;;;20.40;34.49
42297;BME280;72430;47.456;19.016;2024-03-23T13:00:58;99273.72;;;20.32;34.40
42297;BME280;72430;47.456;19.016;2024-03-23T13:03:59;99273.22;;;20.04;34.58
42297;BME280;72430;47.456;19.016;2024-03-23T13:07:01;99261.34;;;19.92;34.25
42297;BME280;72430;47.456;19.016;2024-03-23T13:10:02;99266.94;;;20.04;34.87
42297;BME280;72430;47.456;19.016;2024-03-23T13:13:03;99263.13;;;20.05;34.61
42297;BME280;72430;47.456;19.016;2024-03-23T13:16:05;99250.41;;;19.92;34.37
42297;BME280;72430;47.456;19.016;2024-03-23T13:19:06;99252.94;;;19.93;34.65
42297;BME280;72430;47.456;19.016;2024-03-23T13:22:07;99248.72;;;19.97;34.75
42297;BME280;72430;47.456;19.016;2024-03-23T13:25:08;99246.31;;;19.82;34.98
42297;BME280;72430;47.456;19.016;2024-03-23T13:28:09;99243.78;;;20.06;35.18
42297;BME280;72430;47.456;19.016;2024-03-23T13:31:10;99239.66;;;20.16;34.64
42297;BME280;72430;47.456;19.016;2024-03-23T13:34:11;99241.78;;;19.95;34.54
42297;BME280;72430;47.456;19.016;2024-03-23T13:37:13;99234.75;;;20.06;35.05
42297;BME280;72430;47.456;19.016;2024-03-23T13:40:14;99229.72;;;20.03;34.74
42297;BME280;72430;47.456;19.016;2024-03-23T13:43:15;99231.53;;;19.71;35.36
42297;BME280;72430;47.456;19.016;2024-03-23T13:46:16;99225.78;;;19.80;35.42
42297;BME280;72430;47.456;19.016;2024-03-23T13:49:30;99204.53;;;19.82;35.64
42297;BME280;72430;47.456;19.016;2024-03-23T13:52:31;99206.06;;;19.96;35.13
42297;BME280;72430;47.456;19.016;2024-03-23T13:55:32;99203.78;;;19.93;34.94
42297;BME280;72430;47.456;19.016;2024-03-23T13:58:33;99199.81;;;19.89;35.10
42297;BME280;72430;47.456;19.016;2024-03-23T14:01:34;99194.50;;;19.94;35.46
42297;BME280;72430;47.456;19.016;2024-03-23T14:04:34;99188.66;;;19.91;35.56
42297;BME280;72430;47.456;19.016;2024-03-23T14:07:35;99192.91;;;19.86;35.69
42297;BME280;72430;47.456;19.016;2024-03-23T14:10:40;99188.66;;;19.91;35.35
42297;BME280;72430;47.456;19.016;2024-03-23T14:13:41;99182.38;;;19.90;35.69
42297;BME280;72430;47.456;19.016;2024-03-23T14:16:42;99172.88;;;19.93;35.72
42297;BME280;72430;47.456;19.016;2024-03-23T14:19:43;99174.53;;;19.94;35.34
42297;BME280;72430;47.456;19.016;2024-03-23T14:22:44;99179.63;;;19.90;34.88
42297;BME280;72430;47.456;19.016;2024-03-23T14:25:45;99185.84;;;19.79;35.61
42297;BME280;72430;47.456;19.016;2024-03-23T14:28:46;99168.56;;;19.85;35.71
42297;BME280;72430;47.456;19.016;2024-03-23T14:31:46;99167.06;;;19.70;35.67
42297;BME280;72430;47.456;19.016;2024-03-23T14:34:47;99173.22;;;19.66;35.72
42297;BME280;72430;47.456;19.016;2024-03-23T14:37:48;99161.66;;;19.64;35.42
42297;BME280;72430;47.456;19.016;2024-03-23T14:40:49;99172.34;;;19.47;35.69
42297;BME280;72430;47.456;19.016;2024-03-23T14:43:51;99155.13;;;19.65;35.57
42297;BME280;72430;47.456;19.016;2024-03-23T14:46:54;99164.16;;;19.47;36.03
42297;BME280;72430;47.456;19.016;2024-03-23T14:49:55;99162.88;;;19.68;35.69
42297;BME280;72430;47.456;19.016;2024-03-23T14:52:56;99159.06;;;19.31;35.98
42297;BME280;72430;47.456;19.016;2024-03-23T14:55:57;99160.19;;;19.24;37.25
42297;BME280;72430;47.456;19.016;2024-03-23T14:59:00;99167.84;;;19.34;36.59
42297;BME280;72430;47.456;19.016;2024-03-23T15:02:01;99164.97;;;19.28;37.24
42297;BME280;72430;47.456;19.016;2024-03-23T15:05:02;99161.97;;;19.37;37.39
42297;BME280;72430;47.456;19.016;2024-03-23T15:08:05;99164.69;;;19.55;37.26
42297;BME280;72430;47.456;19.016;2024-03-23T15:11:06;99157.56;;;19.36;37.11
42297;BME280;72430;47.456;19.016;2024-03-23T15:14:07;99167.94;;;19.27;37.89
42297;BME280;72430;47.456;19.016;2024-03-23T15:17:07;99158.75;;;19.21;38.49
42297;BME280;72430;47.456;19.016;2024-03-23T15:20:10;99157.13;;;19.13;38.16
42297;BME280;72430;47.456;19.016;2024-03-23T15:23:12;99156.53;;;19.11;38.16
42297;BME280;72430;47.456;19.016;2024-03-23T15:26:12;99151.94;;;19.12;38.22
42297;BME280;72430;47.456;19.016;2024-03-23T15:29:13;99148.00;;;19.01;38.70
42297;BME280;72430;47.456;19.016;2024-03-23T15:32:17;99149.88;;;19.26;38.53
42297;BME280;72430;47.456;19.016;2024-03-23T15:35:19;99155.03;;;19.15;38.69
42297;BME280;72430;47.456;19.016;2024-03-23T15:38:23;99151.41;;;18.96;38.77
42297;BME280;72430;47.456;19.016;2024-03-23T15:41:24;99157.84;;;19.02;39.16
42297;BME280;72430;47.456;19.016;2024-03-23T15:44:25;99158.09;;;19.00;39.14
42297;BME280;72430;47.456;19.016;2024-03-23T15:47:26;99160.81;;;19.00;39.35
42297;BME280;72430;47.456;19.016;2024-03-23T15:50:26;99157.28;;;18.93;38.62
42297;BME280;72430;47.456;19.016;2024-03-23T15:53:27;99156.50;;;18.86;38.98
42297;BME280;72430;47.456;19.016;2024-03-23T15:56:29;99161.16;;;18.85;39.02
42297;BME280;72430;47.456;19.016;2024-03-23T15:59:30;99160.63;;;18.70;39.35
42297;BME280;72430;47.456;19.016;2024-03-23T16:02:31;99170.03;;;18.74;38.97
42297;BME280;72430;47.456;19.016;2024-03-23T16:05:31;99161.47;;;18.96;39.06
42297;BME280;72430;47.456;19.016;2024-03-23T16:08:33;99166.69;;;19.04;39.14
42297;BME280;72430;47.456;19.016;2024-03-23T16:11:34;99159.47;;;19.10;39.15
42297;BME280;72430;47.456;19.016;2024-03-23T16:14:35;99166.13;;;18.88;39.16
42297;BME280;72430;47.456;19.016;2024-03-23T16:17:36;99164.91;;;18.84;39.03
42297;BME280;72430;47.456;19.016;2024-03-23T16:20:37;99165.28;;;18.88;39.55
42297;BME280;72430;47.456;19.016;2024-03-23T16:23:37;99157.84;;;18.76;39.46
42297;BME280;72430;47.456;19.016;2024-03-23T16:26:38;99157.00;;;18.76;39.55
42297;BME280;72430;47.456;19.016;2024-03-23T16:29:39;99155.34;;;18.75;39.39
42297;BME280;72430;47.456;19.016;2024-03-23T16:32:40;99156.06;;;18.63;39.53
42297;BME280;72430;47.456;19.016;2024-03-23T16:35:41;99154.81;;;18.59;39.82
42297;BME280;72430;47.456;19.016;2024-03-23T16:38:42;99146.47;;;18.22;39.98
42297;BME280;72430;47.456;19.016;2024-03-23T16:41:43;99145.16;;;18.31;39.89
42297;BME280;72430;47.456;19.016;2024-03-23T16:44:44;99147.06;;;18.31;39.94
42297;BME280;72430;47.456;19.016;2024-03-23T16:47:45;99140.88;;;18.10;40.78